Estación Meteorológica Peña el Pijo (Robertgarden) [ 10/21/17 19:50:11 CEST ]

Fecha Hora Presion(HPa) Temp (°C) Humedad % Rocio (°C) Viento ( m/s) Direccion Lluvia 1Hora(mm) Lluvia 24H(mm) LLuvia Total(mm)
2017-Oct-12 01:01:38 1018.200 9.6 62 2.7         1457.65
2017-Oct-12 02:01:48 1018.000 9.0 63 2.3         1457.65
2017-Oct-12 03:02:12 1017.800 8.9 64 2.4         1457.65
2017-Oct-12 04:02:10 1017.700 8.1 65 1.9         1457.65
2017-Oct-12 05:02:25 1017.600 8.2 66 2.2         1457.65
2017-Oct-12 06:02:02 1017.700 7.8 66 1.8         1457.65
2017-Oct-12 07:01:46 1018.100 7.6 67 1.9         1457.65
2017-Oct-12 08:01:46 1018.200 7.6 68 2.1         1457.65
2017-Oct-12 09:01:35 1018.600 7.8 69 2.5         1457.65
2017-Oct-12 10:01:44 1019.200 14.9 59 6.9         1457.65
2017-Oct-12 11:01:34 1019.400 20.8 45 8.4         1457.65
2017-Oct-12 12:01:49 1019.100 26.4 34 9.2         1457.65
2017-Oct-12 13:01:57 1018.800 29.3 25 7.0 2.0 S     1457.65
2017-Oct-12 14:01:46 1018.300 28.9 26 7.2         1457.65
2017-Oct-12 15:01:49 1017.900 30.4 23 6.7         1457.65
2017-Oct-12 16:01:33 1018.100 25.3 30 6.5         1457.65
2017-Oct-12 17:01:40 1017.800 22.9 41 8.9         1457.65
2017-Oct-12 18:01:49 1018.000 21.8 44 8.9         1457.65
2017-Oct-12 19:01:43 1018.300 20.4 51 9.9         1457.65
2017-Oct-12 20:01:35 1018.800 17.4 55 8.2         1457.65
2017-Oct-12 21:01:55 1019.100 14.3 64 7.6         1457.65
2017-Oct-12 22:01:37 1019.300 12.5 68 6.8         1457.65
2017-Oct-12 23:01:43 1019.400 11.8 71 6.7         1457.65

Temperatura Máxima:30°    Temperatura Mínima:
Presión Máxima:1019.400 Hpa    Presión Mínima:1017.600 Hpa


Volver